createdAt,value
2018-12-04T00:04:29.677Z,67.00
2018-12-04T00:09:33.564Z,66.90
2018-12-04T00:14:37.785Z,66.80
2018-12-04T00:19:41.672Z,66.60
2018-12-04T00:24:46.559Z,66.60
2018-12-04T00:29:50.929Z,66.50
2018-12-04T00:34:55.325Z,66.30
2018-12-04T00:39:59.291Z,66.20
2018-12-04T00:45:03.309Z,66.00
2018-12-04T00:50:07.521Z,66.10
2018-12-04T00:55:12.601Z,65.90
2018-12-04T01:05:45.061Z,65.60
2018-12-04T01:10:48.657Z,65.40
2018-12-04T01:15:52.882Z,65.40
2018-12-04T01:20:57.572Z,65.40
2018-12-04T01:26:01.130Z,65.40
2018-12-04T01:31:05.045Z,65.30
2018-12-04T01:36:10.104Z,65.20
2018-12-04T01:41:14.932Z,65.30
2018-12-04T01:46:19.492Z,65.30
2018-12-04T01:51:24.480Z,65.20
2018-12-04T01:56:28.716Z,65.20
2018-12-04T02:01:32.423Z,65.20
2018-12-04T02:06:36.783Z,65.20
2018-12-04T02:11:41.725Z,65.20
2018-12-04T02:16:46.338Z,65.10
2018-12-04T02:21:50.971Z,65.10
2018-12-04T02:26:55.610Z,65.00
2018-12-04T02:31:59.855Z,64.90
2018-12-04T02:37:04.486Z,64.90
2018-12-04T02:42:08.879Z,64.90
2018-12-04T02:47:13.972Z,64.90
2018-12-04T02:52:18.425Z,64.90
2018-12-04T02:57:22.623Z,64.80
2018-12-04T03:02:26.491Z,64.80
2018-12-04T03:07:30.426Z,64.80
2018-12-04T03:12:34.224Z,64.70
2018-12-04T03:17:38.485Z,64.80
2018-12-04T03:22:43.148Z,64.60
2018-12-04T03:27:47.177Z,64.60
2018-12-04T03:32:50.979Z,64.50
2018-12-04T03:37:55.113Z,64.60
2018-12-04T03:42:59.004Z,64.00
2018-12-04T03:48:03.595Z,64.50
2018-12-04T03:53:07.270Z,64.40
2018-12-04T03:58:11.841Z,64.50
2018-12-04T04:03:16.370Z,64.30
2018-12-04T04:08:20.471Z,64.40
2018-12-04T04:13:24.788Z,64.40
2018-12-04T04:18:28.995Z,64.40
2018-12-04T04:23:33.665Z,64.30
2018-12-04T04:28:37.218Z,64.30
2018-12-04T04:33:41.301Z,64.20
2018-12-04T04:38:46.101Z,64.10
2018-12-04T04:43:50.051Z,64.20
2018-12-04T04:48:53.891Z,64.20
2018-12-04T04:53:57.493Z,64.20
2018-12-04T04:59:01.825Z,64.20
2018-12-04T05:04:05.467Z,64.30
2018-12-04T05:09:10.061Z,64.20
2018-12-04T05:14:14.214Z,64.10
2018-12-04T05:19:18.684Z,64.00
2018-12-04T05:24:23.463Z,64.00
2018-12-04T05:29:27.801Z,64.00
2018-12-04T05:34:31.605Z,64.00
2018-12-04T05:39:35.455Z,64.00
2018-12-04T05:44:39.012Z,63.90
2018-12-04T05:49:43.102Z,63.80
2018-12-04T05:54:47.706Z,63.70
2018-12-04T05:59:51.257Z,63.80
2018-12-04T06:04:54.808Z,63.80
2018-12-04T06:10:08.490Z,63.80
2018-12-04T06:15:12.736Z,63.70
2018-12-04T06:20:17.188Z,63.80
2018-12-04T06:25:22.562Z,63.70
2018-12-04T06:30:26.976Z,64.80
2018-12-04T06:35:31.764Z,64.90
2018-12-04T06:40:36.286Z,65.00
2018-12-04T06:45:40.778Z,64.90
2018-12-04T06:50:44.876Z,64.90
2018-12-04T06:55:48.776Z,64.80
2018-12-04T07:00:53.121Z,64.80
2018-12-04T07:05:57.345Z,64.90
2018-12-04T07:11:02.463Z,64.80
2018-12-04T07:16:07.102Z,64.70
2018-12-04T07:21:10.992Z,64.90
2018-12-04T07:26:15.137Z,64.70
2018-12-04T07:31:19.017Z,64.70
2018-12-04T07:36:22.700Z,64.70
2018-12-04T07:41:27.025Z,64.60
2018-12-04T07:46:31.032Z,64.60
2018-12-04T07:51:34.721Z,64.50
2018-12-04T07:56:39.817Z,64.50
2018-12-04T08:01:43.983Z,64.50
2018-12-04T08:06:47.586Z,64.60
2018-12-04T08:11:52.023Z,64.60
2018-12-04T08:17:01.905Z,64.50
2018-12-04T08:22:05.767Z,64.40
2018-12-04T08:27:10.877Z,64.30
2018-12-04T08:32:14.921Z,64.30
2018-12-04T08:37:19.449Z,65.20
2018-12-04T08:47:52.660Z,64.20
2018-12-04T08:52:58.770Z,64.20
2018-12-04T09:08:59.387Z,64.00
2018-12-04T09:19:43.151Z,64.00
2018-12-04T09:24:47.117Z,63.80
2018-12-04T09:29:51.392Z,63.90
2018-12-04T09:34:56.079Z,64.60
2018-12-04T09:40:00.027Z,63.60
2018-12-04T09:50:00.307Z,63.00
2018-12-04T09:55:08.195Z,63.50
2018-12-04T10:22:03.677Z,61.90
2018-12-04T10:27:07.460Z,61.80
2018-12-04T10:32:12.017Z,61.80
2018-12-04T10:37:16.528Z,61.70
2018-12-04T10:42:20.101Z,61.70
2018-12-04T10:47:23.870Z,61.70
2018-12-04T10:52:27.936Z,61.70
2018-12-04T10:57:32.553Z,61.80
2018-12-04T11:08:04.347Z,61.80
2018-12-04T11:13:08.503Z,61.70
2018-12-04T11:18:12.671Z,61.50
2018-12-04T11:23:17.168Z,61.60
2018-12-04T11:28:22.019Z,61.50
2018-12-04T11:33:26.729Z,62.20
2018-12-04T11:38:30.579Z,61.30
2018-12-04T11:43:34.421Z,61.30
2018-12-04T11:48:39.254Z,61.30
2018-12-04T11:53:43.380Z,61.20
2018-12-04T11:58:47.858Z,61.20
2018-12-04T12:03:52.098Z,61.30
2018-12-04T12:08:55.863Z,61.00
2018-12-04T12:13:59.341Z,61.00
2018-12-04T12:19:09.460Z,61.00
2018-12-04T12:24:13.540Z,60.90
2018-12-04T12:29:18.153Z,60.80
2018-12-04T12:34:23.606Z,60.70
2018-12-04T12:39:28.365Z,60.70
2018-12-04T12:44:31.873Z,60.50
2018-12-04T12:49:35.895Z,60.50
2018-12-04T12:54:40.049Z,60.50
2018-12-04T12:59:44.030Z,60.40
2018-12-04T13:04:47.652Z,60.40
2018-12-04T13:09:51.640Z,60.40
2018-12-04T13:14:55.506Z,60.30
2018-12-04T13:19:59.547Z,60.30
2018-12-04T13:25:03.333Z,60.30
2018-12-04T13:30:08.484Z,60.10
2018-12-04T13:35:12.280Z,60.10
2018-12-04T13:40:16.278Z,60.30
2018-12-04T13:45:19.773Z,60.20
2018-12-04T13:50:24.061Z,59.90
2018-12-04T13:55:27.961Z,59.90
2018-12-04T14:00:32.100Z,59.90
2018-12-04T14:05:35.815Z,60.10
2018-12-04T14:10:39.757Z,60.20
2018-12-04T14:15:43.810Z,60.10
2018-12-04T14:20:48.059Z,60.20
2018-12-04T14:25:55.257Z,60.30
2018-12-04T14:36:28.711Z,60.40
2018-12-04T14:41:38.960Z,60.40
2018-12-04T14:46:47.314Z,60.40
2018-12-04T14:51:57.858Z,60.70
2018-12-04T14:57:01.766Z,60.80
2018-12-04T15:07:51.819Z,60.80
2018-12-04T15:12:56.196Z,62.00
2018-12-04T15:18:00.450Z,62.10
2018-12-04T15:23:04.709Z,62.00
2018-12-04T15:28:08.958Z,62.10
2018-12-04T15:33:12.837Z,62.00
2018-12-04T15:38:18.254Z,62.10
2018-12-04T15:43:22.099Z,62.00
2018-12-04T15:58:54.744Z,61.80
2018-12-04T16:03:58.353Z,61.80
2018-12-04T16:09:01.837Z,61.80
2018-12-04T16:19:33.248Z,61.70
2018-12-04T16:24:45.358Z,61.60
2018-12-04T16:29:55.332Z,61.60
2018-12-04T16:34:58.996Z,61.50
2018-12-04T16:40:03.097Z,61.40
2018-12-04T16:45:07.429Z,61.40
2018-12-04T16:50:31.181Z,62.30
2018-12-04T17:00:46.044Z,61.40
2018-12-04T17:06:12.852Z,61.30
2018-12-04T17:11:17.689Z,61.30
2018-12-04T17:16:21.282Z,61.10
2018-12-04T17:21:25.501Z,61.10
2018-12-04T17:26:30.116Z,61.10
2018-12-04T17:37:03.105Z,61.20
2018-12-04T17:42:07.214Z,61.00
2018-12-04T17:47:11.161Z,61.00
2018-12-04T18:02:53.980Z,60.90
2018-12-04T18:07:59.303Z,60.90
2018-12-04T18:29:47.825Z,60.70
2018-12-04T18:34:52.032Z,60.60
2018-12-04T18:39:55.672Z,60.60
2018-12-04T18:44:59.783Z,60.60
2018-12-04T18:50:06.188Z,60.70
2018-12-04T18:55:12.392Z,60.50
2018-12-04T19:00:16.837Z,60.50
2018-12-04T19:05:21.230Z,60.40
2018-12-04T19:10:25.433Z,60.50
2018-12-04T19:15:28.934Z,60.40
2018-12-04T19:20:32.579Z,60.40
2018-12-04T19:25:36.617Z,60.30
2018-12-04T19:30:41.139Z,60.40
2018-12-04T19:35:45.062Z,60.20
2018-12-04T19:40:48.766Z,60.20
2018-12-04T19:45:52.693Z,60.10
2018-12-04T19:50:56.889Z,60.20
2018-12-04T19:56:00.542Z,60.10
2018-12-04T20:01:04.492Z,60.10
2018-12-04T20:06:08.053Z,60.20
2018-12-04T20:11:11.558Z,60.10
2018-12-04T20:16:16.474Z,60.00
2018-12-04T20:26:51.529Z,60.00
2018-12-04T20:31:55.748Z,59.90
2018-12-04T20:37:00.423Z,60.00
2018-12-04T20:42:08.361Z,59.90
2018-12-04T20:52:44.498Z,59.80
2018-12-04T20:57:48.453Z,59.80
2018-12-04T21:02:52.059Z,59.80
2018-12-04T21:07:56.528Z,59.80
2018-12-04T21:13:00.422Z,59.80
2018-12-04T21:18:04.874Z,59.80
2018-12-04T21:23:22.052Z,59.70
2018-12-04T21:28:25.733Z,59.70
2018-12-04T21:33:34.808Z,59.70
2018-12-04T21:38:44.252Z,59.60
2018-12-04T21:43:53.092Z,59.60
2018-12-04T21:48:56.792Z,59.60
2018-12-04T21:54:07.004Z,59.50
2018-12-04T21:59:11.299Z,59.50
2018-12-04T22:04:14.947Z,59.50
2018-12-04T22:09:18.433Z,59.40
2018-12-04T22:14:23.088Z,59.40
2018-12-04T22:19:26.885Z,59.40
2018-12-04T22:24:31.069Z,59.40
2018-12-04T22:29:35.172Z,59.40
2018-12-04T22:34:39.047Z,59.40
2018-12-04T22:39:43.155Z,59.30
2018-12-04T22:44:46.836Z,59.30
2018-12-04T22:49:51.196Z,59.30
2018-12-04T22:54:54.720Z,59.30
2018-12-04T22:59:58.576Z,59.30
2018-12-04T23:05:02.777Z,59.30
2018-12-04T23:10:07.448Z,59.20
2018-12-04T23:15:11.079Z,59.20
2018-12-04T23:20:14.832Z,59.20
2018-12-04T23:25:18.883Z,59.30
2018-12-04T23:30:23.229Z,59.30
2018-12-04T23:35:27.528Z,59.30
2018-12-04T23:40:32.296Z,59.20
2018-12-04T23:45:37.270Z,59.20
2018-12-04T23:50:41.399Z,59.20
2018-12-04T23:55:45.772Z,59.20
